sensor_id;sensor_type;location;lat;lon;timestamp;P1;durP1;ratioP1;P2;durP2;ratioP2
52776;SDS011;38656;54.260;20.822;2022-12-24T00:03:05;28.52;;;18.48;;
52776;SDS011;38656;54.260;20.822;2022-12-24T00:06:29;23.85;;;18.73;;
52776;SDS011;38656;54.260;20.822;2022-12-24T00:09:54;23.35;;;20.95;;
52776;SDS011;38656;54.260;20.822;2022-12-24T00:13:19;25.98;;;19.48;;
52776;SDS011;38656;54.260;20.822;2022-12-24T00:16:43;26.92;;;18.60;;
52776;SDS011;38656;54.260;20.822;2022-12-24T00:20:08;22.00;;;13.95;;
52776;SDS011;38656;54.260;20.822;2022-12-24T00:23:33;27.83;;;15.50;;
52776;SDS011;38656;54.260;20.822;2022-12-24T00:26:58;32.05;;;21.60;;
52776;SDS011;38656;54.260;20.822;2022-12-24T00:30:22;25.25;;;17.52;;
52776;SDS011;38656;54.260;20.822;2022-12-24T00:33:47;22.05;;;16.98;;
52776;SDS011;38656;54.260;20.822;2022-12-24T00:37:12;27.55;;;15.88;;
52776;SDS011;38656;54.260;20.822;2022-12-24T00:40:36;28.83;;;19.58;;
52776;SDS011;38656;54.260;20.822;2022-12-24T00:44:03;24.70;;;16.13;;
52776;SDS011;38656;54.260;20.822;2022-12-24T00:47:28;27.58;;;17.13;;
52776;SDS011;38656;54.260;20.822;2022-12-24T00:50:53;25.75;;;18.70;;
52776;SDS011;38656;54.260;20.822;2022-12-24T00:54:17;24.42;;;17.85;;
52776;SDS011;38656;54.260;20.822;2022-12-24T00:57:42;33.17;;;20.65;;
52776;SDS011;38656;54.260;20.822;2022-12-24T01:01:07;27.08;;;18.80;;
52776;SDS011;38656;54.260;20.822;2022-12-24T01:04:32;31.85;;;19.95;;
52776;SDS011;38656;54.260;20.822;2022-12-24T01:07:56;24.48;;;17.17;;
52776;SDS011;38656;54.260;20.822;2022-12-24T01:11:21;21.65;;;16.88;;
52776;SDS011;38656;54.260;20.822;2022-12-24T01:14:46;21.70;;;15.15;;
52776;SDS011;38656;54.260;20.822;2022-12-24T01:18:11;26.45;;;17.05;;
52776;SDS011;38656;54.260;20.822;2022-12-24T01:21:35;55.13;;;36.13;;
52776;SDS011;38656;54.260;20.822;2022-12-24T01:25:00;59.90;;;37.58;;
52776;SDS011;38656;54.260;20.822;2022-12-24T01:28:25;59.63;;;43.53;;
52776;SDS011;38656;54.260;20.822;2022-12-24T01:31:50;55.58;;;37.83;;
52776;SDS011;38656;54.260;20.822;2022-12-24T01:35:15;50.58;;;38.17;;
52776;SDS011;38656;54.260;20.822;2022-12-24T01:38:40;59.05;;;37.65;;
52776;SDS011;38656;54.260;20.822;2022-12-24T01:42:15;58.10;;;38.75;;
52776;SDS011;38656;54.260;20.822;2022-12-24T01:49:53;57.05;;;37.55;;
52776;SDS011;38656;54.260;20.822;2022-12-24T01:53:22;42.30;;;33.05;;
52776;SDS011;38656;54.260;20.822;2022-12-24T01:56:49;50.47;;;32.50;;
52776;SDS011;38656;54.260;20.822;2022-12-24T02:00:20;32.50;;;26.27;;
52776;SDS011;38656;54.260;20.822;2022-12-24T02:03:45;33.60;;;25.52;;
52776;SDS011;38656;54.260;20.822;2022-12-24T02:07:17;37.70;;;23.15;;
52776;SDS011;38656;54.260;20.822;2022-12-24T02:10:43;25.73;;;18.92;;
52776;SDS011;38656;54.260;20.822;2022-12-24T02:14:09;27.67;;;18.08;;
52776;SDS011;38656;54.260;20.822;2022-12-24T02:21:27;15.57;;;12.40;;
52776;SDS011;38656;54.260;20.822;2022-12-24T02:32:12;32.55;;;26.75;;
52776;SDS011;38656;54.260;20.822;2022-12-24T02:35:45;27.48;;;20.33;;
52776;SDS011;38656;54.260;20.822;2022-12-24T02:39:21;22.17;;;18.55;;
52776;SDS011;38656;54.260;20.822;2022-12-24T02:42:52;16.60;;;13.63;;
52776;SDS011;38656;54.260;20.822;2022-12-24T02:46:22;18.88;;;12.60;;
52776;SDS011;38656;54.260;20.822;2022-12-24T02:49:50;18.27;;;12.95;;
52776;SDS011;38656;54.260;20.822;2022-12-24T02:53:18;17.58;;;12.57;;
52776;SDS011;38656;54.260;20.822;2022-12-24T03:00:15;12.65;;;10.52;;
52776;SDS011;38656;54.260;20.822;2022-12-24T03:07:25;14.27;;;8.80;;
52776;SDS011;38656;54.260;20.822;2022-12-24T03:11:12;10.57;;;9.10;;
52776;SDS011;38656;54.260;20.822;2022-12-24T03:14:50;12.57;;;9.07;;
52776;SDS011;38656;54.260;20.822;2022-12-24T03:18:17;12.52;;;9.38;;
52776;SDS011;38656;54.260;20.822;2022-12-24T03:21:44;23.35;;;14.07;;
52776;SDS011;38656;54.260;20.822;2022-12-24T03:25:09;19.70;;;11.88;;
52776;SDS011;38656;54.260;20.822;2022-12-24T03:28:37;17.15;;;12.70;;
52776;SDS011;38656;54.260;20.822;2022-12-24T03:32:04;16.77;;;13.77;;
52776;SDS011;38656;54.260;20.822;2022-12-24T03:35:28;17.95;;;13.18;;
52776;SDS011;38656;54.260;20.822;2022-12-24T03:38:54;17.27;;;13.15;;
52776;SDS011;38656;54.260;20.822;2022-12-24T03:42:19;21.88;;;16.98;;
52776;SDS011;38656;54.260;20.822;2022-12-24T03:45:44;22.80;;;17.58;;
52776;SDS011;38656;54.260;20.822;2022-12-24T03:49:08;25.30;;;17.95;;
52776;SDS011;38656;54.260;20.822;2022-12-24T03:52:33;28.55;;;21.08;;
52776;SDS011;38656;54.260;20.822;2022-12-24T03:55:58;41.55;;;23.83;;
52776;SDS011;38656;54.260;20.822;2022-12-24T03:59:22;37.60;;;23.65;;
52776;SDS011;38656;54.260;20.822;2022-12-24T04:02:47;46.58;;;31.30;;
52776;SDS011;38656;54.260;20.822;2022-12-24T04:06:13;30.63;;;25.00;;
52776;SDS011;38656;54.260;20.822;2022-12-24T04:09:38;47.17;;;34.70;;
52776;SDS011;38656;54.260;20.822;2022-12-24T04:13:03;38.20;;;28.55;;
52776;SDS011;38656;54.260;20.822;2022-12-24T04:16:27;35.67;;;26.25;;
52776;SDS011;38656;54.260;20.822;2022-12-24T04:19:52;38.35;;;29.55;;
52776;SDS011;38656;54.260;20.822;2022-12-24T04:23:17;38.17;;;29.85;;
52776;SDS011;38656;54.260;20.822;2022-12-24T04:26:42;33.28;;;25.50;;
52776;SDS011;38656;54.260;20.822;2022-12-24T04:30:06;45.70;;;30.13;;
52776;SDS011;38656;54.260;20.822;2022-12-24T04:33:33;36.72;;;30.83;;
52776;SDS011;38656;54.260;20.822;2022-12-24T04:36:58;48.05;;;35.58;;
52776;SDS011;38656;54.260;20.822;2022-12-24T04:40:22;39.47;;;31.08;;
52776;SDS011;38656;54.260;20.822;2022-12-24T04:43:48;38.63;;;30.30;;
52776;SDS011;38656;54.260;20.822;2022-12-24T04:47:12;39.87;;;26.10;;
52776;SDS011;38656;54.260;20.822;2022-12-24T04:50:38;32.53;;;26.67;;
52776;SDS011;38656;54.260;20.822;2022-12-24T04:54:02;33.67;;;25.85;;
52776;SDS011;38656;54.260;20.822;2022-12-24T04:57:29;36.83;;;27.52;;
52776;SDS011;38656;54.260;20.822;2022-12-24T05:00:54;73.72;;;30.58;;
52776;SDS011;38656;54.260;20.822;2022-12-24T05:04:19;39.95;;;28.75;;
52776;SDS011;38656;54.260;20.822;2022-12-24T05:07:43;38.75;;;27.30;;
52776;SDS011;38656;54.260;20.822;2022-12-24T05:11:09;49.30;;;32.63;;
52776;SDS011;38656;54.260;20.822;2022-12-24T05:14:33;50.78;;;35.13;;
52776;SDS011;38656;54.260;20.822;2022-12-24T05:17:58;57.88;;;38.05;;
52776;SDS011;38656;54.260;20.822;2022-12-24T05:21:23;56.97;;;35.53;;
52776;SDS011;38656;54.260;20.822;2022-12-24T05:25:07;66.07;;;45.95;;
52776;SDS011;38656;54.260;20.822;2022-12-24T05:29:02;75.70;;;42.67;;
52776;SDS011;38656;54.260;20.822;2022-12-24T05:32:26;190.02;;;78.38;;
52776;SDS011;38656;54.260;20.822;2022-12-24T05:35:51;193.40;;;77.03;;
52776;SDS011;38656;54.260;20.822;2022-12-24T05:39:16;110.47;;;49.45;;
52776;SDS011;38656;54.260;20.822;2022-12-24T05:42:41;146.10;;;56.08;;
52776;SDS011;38656;54.260;20.822;2022-12-24T05:46:07;136.30;;;58.08;;
52776;SDS011;38656;54.260;20.822;2022-12-24T05:49:32;137.63;;;61.33;;
52776;SDS011;38656;54.260;20.822;2022-12-24T05:52:57;68.85;;;41.53;;
52776;SDS011;38656;54.260;20.822;2022-12-24T05:56:22;75.97;;;41.83;;
52776;SDS011;38656;54.260;20.822;2022-12-24T05:59:47;67.07;;;27.30;;
52776;SDS011;38656;54.260;20.822;2022-12-24T06:03:12;72.32;;;38.30;;
52776;SDS011;38656;54.260;20.822;2022-12-24T06:06:37;38.78;;;27.83;;
52776;SDS011;38656;54.260;20.822;2022-12-24T06:10:01;47.92;;;33.53;;
52776;SDS011;38656;54.260;20.822;2022-12-24T06:13:28;52.15;;;37.78;;
52776;SDS011;38656;54.260;20.822;2022-12-24T06:16:52;68.75;;;51.10;;
52776;SDS011;38656;54.260;20.822;2022-12-24T06:20:17;72.97;;;49.40;;
52776;SDS011;38656;54.260;20.822;2022-12-24T06:23:43;62.75;;;49.47;;
52776;SDS011;38656;54.260;20.822;2022-12-24T06:27:08;54.83;;;44.90;;
52776;SDS011;38656;54.260;20.822;2022-12-24T06:30:32;54.83;;;41.67;;
52776;SDS011;38656;54.260;20.822;2022-12-24T06:33:57;167.23;;;68.07;;
52776;SDS011;38656;54.260;20.822;2022-12-24T06:37:22;394.48;;;155.98;;
52776;SDS011;38656;54.260;20.822;2022-12-24T06:40:46;291.08;;;113.15;;
52776;SDS011;38656;54.260;20.822;2022-12-24T06:44:11;203.65;;;83.15;;
52776;SDS011;38656;54.260;20.822;2022-12-24T06:47:36;194.98;;;81.10;;
52776;SDS011;38656;54.260;20.822;2022-12-24T06:51:01;167.80;;;70.78;;
52776;SDS011;38656;54.260;20.822;2022-12-24T06:54:26;164.35;;;69.90;;
52776;SDS011;38656;54.260;20.822;2022-12-24T06:57:50;152.93;;;66.82;;
52776;SDS011;38656;54.260;20.822;2022-12-24T07:01:15;103.68;;;55.10;;
52776;SDS011;38656;54.260;20.822;2022-12-24T07:04:41;96.93;;;53.50;;
52776;SDS011;38656;54.260;20.822;2022-12-24T07:08:06;95.15;;;54.80;;
52776;SDS011;38656;54.260;20.822;2022-12-24T07:11:31;96.32;;;51.13;;
52776;SDS011;38656;54.260;20.822;2022-12-24T07:14:56;92.73;;;53.00;;
52776;SDS011;38656;54.260;20.822;2022-12-24T07:18:24;199.10;;;72.13;;
52776;SDS011;38656;54.260;20.822;2022-12-24T07:21:49;172.80;;;70.97;;
52776;SDS011;38656;54.260;20.822;2022-12-24T07:25:14;261.15;;;96.88;;
52776;SDS011;38656;54.260;20.822;2022-12-24T07:28:38;384.95;;;153.32;;
52776;SDS011;38656;54.260;20.822;2022-12-24T07:32:04;362.30;;;139.57;;
52776;SDS011;38656;54.260;20.822;2022-12-24T07:35:29;318.92;;;124.63;;
52776;SDS011;38656;54.260;20.822;2022-12-24T07:38:54;261.08;;;113.25;;
52776;SDS011;38656;54.260;20.822;2022-12-24T07:42:19;270.73;;;120.90;;
52776;SDS011;38656;54.260;20.822;2022-12-24T07:45:44;346.55;;;160.85;;
52776;SDS011;38656;54.260;20.822;2022-12-24T07:49:09;324.50;;;144.88;;
52776;SDS011;38656;54.260;20.822;2022-12-24T07:52:34;229.23;;;95.28;;
52776;SDS011;38656;54.260;20.822;2022-12-24T07:55:59;480.42;;;180.95;;
52776;SDS011;38656;54.260;20.822;2022-12-24T07:59:23;360.35;;;92.93;;
52776;SDS011;38656;54.260;20.822;2022-12-24T08:02:48;198.02;;;35.95;;
52776;SDS011;38656;54.260;20.822;2022-12-24T08:06:15;245.65;;;40.47;;
52776;SDS011;38656;54.260;20.822;2022-12-24T08:09:40;107.72;;;40.47;;
52776;SDS011;38656;54.260;20.822;2022-12-24T08:13:05;140.07;;;38.65;;
52776;SDS011;38656;54.260;20.822;2022-12-24T08:16:30;197.90;;;54.63;;
52776;SDS011;38656;54.260;20.822;2022-12-24T08:19:55;247.85;;;79.90;;
52776;SDS011;38656;54.260;20.822;2022-12-24T08:23:19;235.00;;;69.45;;
52776;SDS011;38656;54.260;20.822;2022-12-24T08:26:44;441.45;;;132.63;;
52776;SDS011;38656;54.260;20.822;2022-12-24T08:30:09;333.27;;;94.63;;
52776;SDS011;38656;54.260;20.822;2022-12-24T08:33:34;342.97;;;79.30;;
52776;SDS011;38656;54.260;20.822;2022-12-24T08:37:00;271.52;;;83.47;;
52776;SDS011;38656;54.260;20.822;2022-12-24T08:40:25;263.00;;;86.95;;
52776;SDS011;38656;54.260;20.822;2022-12-24T08:43:50;273.65;;;102.72;;
52776;SDS011;38656;54.260;20.822;2022-12-24T08:47:14;156.80;;;67.28;;
52776;SDS011;38656;54.260;20.822;2022-12-24T08:50:40;161.25;;;62.17;;
52776;SDS011;38656;54.260;20.822;2022-12-24T08:54:05;62.22;;;38.05;;
52776;SDS011;38656;54.260;20.822;2022-12-24T08:57:30;107.50;;;67.82;;
52776;SDS011;38656;54.260;20.822;2022-12-24T09:00:55;67.65;;;50.67;;
52776;SDS011;38656;54.260;20.822;2022-12-24T09:04:19;165.70;;;78.53;;
52776;SDS011;38656;54.260;20.822;2022-12-24T09:07:44;127.05;;;61.22;;
52776;SDS011;38656;54.260;20.822;2022-12-24T09:11:10;83.00;;;50.70;;
52776;SDS011;38656;54.260;20.822;2022-12-24T09:14:35;105.05;;;55.63;;
52776;SDS011;38656;54.260;20.822;2022-12-24T09:18:00;244.82;;;119.50;;
52776;SDS011;38656;54.260;20.822;2022-12-24T09:21:25;395.77;;;200.23;;
52776;SDS011;38656;54.260;20.822;2022-12-24T09:24:49;206.93;;;91.72;;
52776;SDS011;38656;54.260;20.822;2022-12-24T09:28:16;338.85;;;119.88;;
52776;SDS011;38656;54.260;20.822;2022-12-24T09:31:41;68.40;;;41.33;;
52776;SDS011;38656;54.260;20.822;2022-12-24T09:35:06;79.35;;;59.42;;
52776;SDS011;38656;54.260;20.822;2022-12-24T09:38:32;96.93;;;57.57;;
52776;SDS011;38656;54.260;20.822;2022-12-24T09:46:05;64.90;;;45.92;;
52776;SDS011;38656;54.260;20.822;2022-12-24T09:49:36;31.63;;;28.60;;
52776;SDS011;38656;54.260;20.822;2022-12-24T09:53:13;21.85;;;19.55;;
52776;SDS011;38656;54.260;20.822;2022-12-24T09:56:40;80.38;;;45.92;;
52776;SDS011;38656;54.260;20.822;2022-12-24T10:00:15;30.27;;;23.92;;
52776;SDS011;38656;54.260;20.822;2022-12-24T10:03:41;71.32;;;44.70;;
52776;SDS011;38656;54.260;20.822;2022-12-24T10:07:21;102.07;;;52.85;;
52776;SDS011;38656;54.260;20.822;2022-12-24T10:11:01;80.57;;;51.83;;
52776;SDS011;38656;54.260;20.822;2022-12-24T10:22:33;123.18;;;48.60;;
52776;SDS011;38656;54.260;20.822;2022-12-24T10:33:41;36.00;;;23.90;;
52776;SDS011;38656;54.260;20.822;2022-12-24T10:37:13;40.08;;;28.73;;
52776;SDS011;38656;54.260;20.822;2022-12-24T10:44:03;34.03;;;23.42;;
52776;SDS011;38656;54.260;20.822;2022-12-24T10:47:32;65.88;;;40.80;;
52776;SDS011;38656;54.260;20.822;2022-12-24T10:51:03;62.30;;;39.63;;
52776;SDS011;38656;54.260;20.822;2022-12-24T10:54:36;145.75;;;61.38;;
52776;SDS011;38656;54.260;20.822;2022-12-24T10:58:03;287.98;;;126.57;;
52776;SDS011;38656;54.260;20.822;2022-12-24T11:01:46;109.70;;;64.22;;
52776;SDS011;38656;54.260;20.822;2022-12-24T11:05:28;74.45;;;56.85;;
52776;SDS011;38656;54.260;20.822;2022-12-24T11:08:52;49.80;;;43.05;;
52776;SDS011;38656;54.260;20.822;2022-12-24T11:12:28;57.47;;;48.50;;
52776;SDS011;38656;54.260;20.822;2022-12-24T11:16:02;163.98;;;78.63;;
52776;SDS011;38656;54.260;20.822;2022-12-24T11:19:32;219.68;;;110.38;;
52776;SDS011;38656;54.260;20.822;2022-12-24T11:22:58;135.43;;;78.95;;
52776;SDS011;38656;54.260;20.822;2022-12-24T11:26:36;156.80;;;76.07;;
52776;SDS011;38656;54.260;20.822;2022-12-24T11:30:16;111.93;;;66.45;;
52776;SDS011;38656;54.260;20.822;2022-12-24T11:33:46;165.15;;;59.55;;
52776;SDS011;38656;54.260;20.822;2022-12-24T11:37:22;150.43;;;63.65;;
52776;SDS011;38656;54.260;20.822;2022-12-24T11:40:50;70.05;;;52.75;;
52776;SDS011;38656;54.260;20.822;2022-12-24T11:44:25;41.13;;;27.23;;
52776;SDS011;38656;54.260;20.822;2022-12-24T11:47:52;54.28;;;33.10;;
52776;SDS011;38656;54.260;20.822;2022-12-24T11:55:51;19.75;;;15.07;;
52776;SDS011;38656;54.260;20.822;2022-12-24T12:02:45;286.52;;;89.15;;
52776;SDS011;38656;54.260;20.822;2022-12-24T12:06:18;177.25;;;64.47;;
52776;SDS011;38656;54.260;20.822;2022-12-24T12:13:17;283.58;;;97.10;;
52776;SDS011;38656;54.260;20.822;2022-12-24T12:16:57;434.83;;;152.87;;
52776;SDS011;38656;54.260;20.822;2022-12-24T12:24:12;114.60;;;67.72;;
52776;SDS011;38656;54.260;20.822;2022-12-24T12:27:53;224.15;;;110.43;;
52776;SDS011;38656;54.260;20.822;2022-12-24T12:30:21;80.13;;;46.60;;
52776;SDS011;38656;54.260;20.822;2022-12-24T12:33:08;212.65;;;86.75;;
52776;SDS011;38656;54.260;20.822;2022-12-24T12:35:37;329.23;;;181.55;;
52776;SDS011;38656;54.260;20.822;2022-12-24T12:38:05;50.25;;;28.55;;
52776;SDS011;38656;54.260;20.822;2022-12-24T12:40:35;52.10;;;40.60;;
52776;SDS011;38656;54.260;20.822;2022-12-24T12:43:07;360.30;;;198.77;;
52776;SDS011;38656;54.260;20.822;2022-12-24T12:45:42;1268.30;;;793.55;;
52776;SDS011;38656;54.260;20.822;2022-12-24T12:48:52;514.58;;;341.00;;
52776;SDS011;38656;54.260;20.822;2022-12-24T12:51:04;428.27;;;237.27;;
52776;SDS011;38656;54.260;20.822;2022-12-24T12:58:48;505.48;;;361.10;;
52776;SDS011;38656;54.260;20.822;2022-12-24T13:09:01;132.85;;;61.20;;
52776;SDS011;38656;54.260;20.822;2022-12-24T13:21:53;243.77;;;106.20;;
52776;SDS011;38656;54.260;20.822;2022-12-24T13:24:21;462.98;;;277.77;;
52776;SDS011;38656;54.260;20.822;2022-12-24T13:34:48;1088.00;;;710.38;;
52776;SDS011;38656;54.260;20.822;2022-12-24T13:37:18;603.92;;;440.70;;
52776;SDS011;38656;54.260;20.822;2022-12-24T13:52:54;97.57;;;45.83;;
52776;SDS011;38656;54.260;20.822;2022-12-24T13:55:20;240.27;;;112.10;;
52776;SDS011;38656;54.260;20.822;2022-12-24T14:05:34;19.13;;;17.23;;
52776;SDS011;38656;54.260;20.822;2022-12-24T14:08:01;23.45;;;20.98;;
52776;SDS011;38656;54.260;20.822;2022-12-24T14:15:59;158.88;;;86.68;;
52776;SDS011;38656;54.260;20.822;2022-12-24T14:18:26;349.20;;;218.73;;
52776;SDS011;38656;54.260;20.822;2022-12-24T14:20:54;145.88;;;86.47;;
52776;SDS011;38656;54.260;20.822;2022-12-24T14:25:50;170.88;;;98.97;;
52776;SDS011;38656;54.260;20.822;2022-12-24T14:28:16;31.13;;;26.10;;
52776;SDS011;38656;54.260;20.822;2022-12-24T14:30:46;579.63;;;344.17;;
52776;SDS011;38656;54.260;20.822;2022-12-24T14:33:30;120.88;;;77.72;;
52776;SDS011;38656;54.260;20.822;2022-12-24T14:35:58;430.23;;;240.60;;
52776;SDS011;38656;54.260;20.822;2022-12-24T14:38:25;76.00;;;55.63;;
52776;SDS011;38656;54.260;20.822;2022-12-24T14:40:57;93.28;;;57.25;;
52776;SDS011;38656;54.260;20.822;2022-12-24T14:43:27;159.85;;;79.72;;
52776;SDS011;38656;54.260;20.822;2022-12-24T14:46:05;182.05;;;123.60;;
52776;SDS011;38656;54.260;20.822;2022-12-24T14:51:26;39.72;;;35.42;;
52776;SDS011;38656;54.260;20.822;2022-12-24T14:56:25;54.97;;;35.45;;
52776;SDS011;38656;54.260;20.822;2022-12-24T14:58:51;198.07;;;84.35;;
52776;SDS011;38656;54.260;20.822;2022-12-24T15:03:59;511.75;;;208.70;;
52776;SDS011;38656;54.260;20.822;2022-12-24T15:06:26;71.07;;;32.97;;
52776;SDS011;38656;54.260;20.822;2022-12-24T15:08:52;60.33;;;42.00;;
52776;SDS011;38656;54.260;20.822;2022-12-24T15:11:19;365.75;;;136.88;;
52776;SDS011;38656;54.260;20.822;2022-12-24T15:13:46;299.15;;;91.07;;
52776;SDS011;38656;54.260;20.822;2022-12-24T15:16:14;29.35;;;16.88;;
52776;SDS011;38656;54.260;20.822;2022-12-24T15:18:45;279.05;;;93.13;;
52776;SDS011;38656;54.260;20.822;2022-12-24T15:21:14;247.27;;;88.07;;
52776;SDS011;38656;54.260;20.822;2022-12-24T15:23:44;96.97;;;44.75;;
52776;SDS011;38656;54.260;20.822;2022-12-24T15:26:24;205.52;;;71.15;;
52776;SDS011;38656;54.260;20.822;2022-12-24T15:28:50;244.80;;;78.05;;
52776;SDS011;38656;54.260;20.822;2022-12-24T15:31:18;194.13;;;68.93;;
52776;SDS011;38656;54.260;20.822;2022-12-24T15:33:45;363.42;;;130.98;;
52776;SDS011;38656;54.260;20.822;2022-12-24T15:36:11;169.25;;;65.45;;
52776;SDS011;38656;54.260;20.822;2022-12-24T15:38:38;213.75;;;72.28;;
52776;SDS011;38656;54.260;20.822;2022-12-24T15:41:06;201.05;;;66.40;;
52776;SDS011;38656;54.260;20.822;2022-12-24T15:43:37;552.47;;;191.65;;
52776;SDS011;38656;54.260;20.822;2022-12-24T15:46:03;692.83;;;248.10;;
52776;SDS011;38656;54.260;20.822;2022-12-24T15:48:29;311.73;;;113.10;;
52776;SDS011;38656;54.260;20.822;2022-12-24T15:50:57;251.52;;;93.18;;
52776;SDS011;38656;54.260;20.822;2022-12-24T15:53:28;230.95;;;61.63;;
52776;SDS011;38656;54.260;20.822;2022-12-24T15:56:11;148.30;;;59.50;;
52776;SDS011;38656;54.260;20.822;2022-12-24T15:58:39;286.80;;;93.95;;
52776;SDS011;38656;54.260;20.822;2022-12-24T16:03:38;665.80;;;247.70;;
52776;SDS011;38656;54.260;20.822;2022-12-24T16:06:08;962.63;;;370.83;;
52776;SDS011;38656;54.260;20.822;2022-12-24T16:08:39;646.90;;;228.40;;
52776;SDS011;38656;54.260;20.822;2022-12-24T16:13:35;502.58;;;168.07;;
52776;SDS011;38656;54.260;20.822;2022-12-24T16:16:03;417.80;;;125.97;;
52776;SDS011;38656;54.260;20.822;2022-12-24T16:20:59;273.65;;;71.95;;
52776;SDS011;38656;54.260;20.822;2022-12-24T16:23:26;263.52;;;80.88;;
52776;SDS011;38656;54.260;20.822;2022-12-24T16:25:54;316.58;;;99.45;;
52776;SDS011;38656;54.260;20.822;2022-12-24T16:28:22;202.07;;;66.88;;
52776;SDS011;38656;54.260;20.822;2022-12-24T16:30:48;213.57;;;59.72;;
52776;SDS011;38656;54.260;20.822;2022-12-24T16:33:15;232.35;;;67.50;;
52776;SDS011;38656;54.260;20.822;2022-12-24T16:35:41;346.42;;;101.38;;
52776;SDS011;38656;54.260;20.822;2022-12-24T16:38:08;285.33;;;85.97;;
52776;SDS011;38656;54.260;20.822;2022-12-24T16:40:34;263.52;;;92.30;;
52776;SDS011;38656;54.260;20.822;2022-12-24T16:43:00;59.22;;;37.25;;
52776;SDS011;38656;54.260;20.822;2022-12-24T16:45:45;70.15;;;41.75;;
52776;SDS011;38656;54.260;20.822;2022-12-24T16:48:21;64.38;;;39.58;;
52776;SDS011;38656;54.260;20.822;2022-12-24T16:50:48;73.65;;;38.80;;
52776;SDS011;38656;54.260;20.822;2022-12-24T16:53:15;68.38;;;40.33;;
52776;SDS011;38656;54.260;20.822;2022-12-24T16:55:42;41.60;;;25.90;;
52776;SDS011;38656;54.260;20.822;2022-12-24T16:58:10;45.22;;;31.27;;
52776;SDS011;38656;54.260;20.822;2022-12-24T17:00:36;99.82;;;51.92;;
52776;SDS011;38656;54.260;20.822;2022-12-24T17:03:03;58.83;;;37.47;;
52776;SDS011;38656;54.260;20.822;2022-12-24T17:05:29;56.75;;;42.30;;
52776;SDS011;38656;54.260;20.822;2022-12-24T17:07:57;59.13;;;39.50;;
52776;SDS011;38656;54.260;20.822;2022-12-24T17:10:23;60.30;;;45.33;;
52776;SDS011;38656;54.260;20.822;2022-12-24T17:12:49;287.33;;;102.93;;
52776;SDS011;38656;54.260;20.822;2022-12-24T17:15:15;237.52;;;86.78;;
52776;SDS011;38656;54.260;20.822;2022-12-24T17:17:41;170.95;;;71.15;;
52776;SDS011;38656;54.260;20.822;2022-12-24T17:20:08;173.18;;;72.22;;
52776;SDS011;38656;54.260;20.822;2022-12-24T17:22:34;124.18;;;49.75;;
52776;SDS011;38656;54.260;20.822;2022-12-24T17:25:00;42.53;;;27.42;;
52776;SDS011;38656;54.260;20.822;2022-12-24T17:27:26;34.30;;;23.98;;
52776;SDS011;38656;54.260;20.822;2022-12-24T17:29:52;12.98;;;11.65;;
52776;SDS011;38656;54.260;20.822;2022-12-24T17:32:18;15.10;;;13.25;;
52776;SDS011;38656;54.260;20.822;2022-12-24T17:34:44;28.05;;;19.70;;
52776;SDS011;38656;54.260;20.822;2022-12-24T17:37:10;48.90;;;23.05;;
52776;SDS011;38656;54.260;20.822;2022-12-24T17:39:36;43.53;;;24.63;;
52776;SDS011;38656;54.260;20.822;2022-12-24T17:42:02;33.92;;;23.83;;
52776;SDS011;38656;54.260;20.822;2022-12-24T17:44:28;40.40;;;27.00;;
52776;SDS011;38656;54.260;20.822;2022-12-24T17:46:54;28.63;;;20.83;;
52776;SDS011;38656;54.260;20.822;2022-12-24T17:49:21;41.90;;;30.05;;
52776;SDS011;38656;54.260;20.822;2022-12-24T17:51:46;39.10;;;23.98;;
52776;SDS011;38656;54.260;20.822;2022-12-24T17:54:12;39.05;;;25.60;;
52776;SDS011;38656;54.260;20.822;2022-12-24T17:56:39;33.25;;;28.17;;
52776;SDS011;38656;54.260;20.822;2022-12-24T17:59:05;37.63;;;29.10;;
52776;SDS011;38656;54.260;20.822;2022-12-24T18:01:31;112.57;;;46.90;;
52776;SDS011;38656;54.260;20.822;2022-12-24T18:03:57;149.80;;;59.50;;
52776;SDS011;38656;54.260;20.822;2022-12-24T18:06:24;104.10;;;50.13;;
52776;SDS011;38656;54.260;20.822;2022-12-24T18:08:51;108.13;;;50.25;;
52776;SDS011;38656;54.260;20.822;2022-12-24T18:11:18;104.53;;;54.95;;
52776;SDS011;38656;54.260;20.822;2022-12-24T18:13:45;129.90;;;59.38;;
52776;SDS011;38656;54.260;20.822;2022-12-24T18:18:40;73.57;;;50.85;;
52776;SDS011;38656;54.260;20.822;2022-12-24T18:21:06;293.83;;;132.95;;
52776;SDS011;38656;54.260;20.822;2022-12-24T18:23:32;237.80;;;103.20;;
52776;SDS011;38656;54.260;20.822;2022-12-24T18:26:01;207.93;;;97.28;;
52776;SDS011;38656;54.260;20.822;2022-12-24T18:28:28;134.30;;;66.65;;
52776;SDS011;38656;54.260;20.822;2022-12-24T18:31:01;42.63;;;33.15;;
52776;SDS011;38656;54.260;20.822;2022-12-24T18:33:27;33.85;;;24.40;;
52776;SDS011;38656;54.260;20.822;2022-12-24T18:35:53;35.88;;;26.23;;
52776;SDS011;38656;54.260;20.822;2022-12-24T18:38:19;170.57;;;72.20;;
52776;SDS011;38656;54.260;20.822;2022-12-24T18:40:46;74.60;;;47.85;;
52776;SDS011;38656;54.260;20.822;2022-12-24T18:43:12;48.33;;;33.63;;
52776;SDS011;38656;54.260;20.822;2022-12-24T18:45:41;86.10;;;55.97;;
52776;SDS011;38656;54.260;20.822;2022-12-24T18:48:08;71.20;;;43.97;;
52776;SDS011;38656;54.260;20.822;2022-12-24T18:50:34;153.95;;;72.10;;
52776;SDS011;38656;54.260;20.822;2022-12-24T18:53:00;28.02;;;22.25;;
52776;SDS011;38656;54.260;20.822;2022-12-24T18:55:26;39.58;;;23.45;;
52776;SDS011;38656;54.260;20.822;2022-12-24T18:57:53;391.00;;;128.73;;
52776;SDS011;38656;54.260;20.822;2022-12-24T19:00:19;195.77;;;68.25;;
52776;SDS011;38656;54.260;20.822;2022-12-24T19:02:45;130.52;;;53.97;;
52776;SDS011;38656;54.260;20.822;2022-12-24T19:05:11;50.45;;;33.78;;
52776;SDS011;38656;54.260;20.822;2022-12-24T19:07:39;223.88;;;80.70;;
52776;SDS011;38656;54.260;20.822;2022-12-24T19:10:05;166.35;;;61.47;;
52776;SDS011;38656;54.260;20.822;2022-12-24T19:12:31;278.23;;;93.70;;
52776;SDS011;38656;54.260;20.822;2022-12-24T19:14:57;276.50;;;95.25;;
52776;SDS011;38656;54.260;20.822;2022-12-24T19:17:23;308.55;;;101.07;;
52776;SDS011;38656;54.260;20.822;2022-12-24T19:19:50;481.85;;;181.10;;
52776;SDS011;38656;54.260;20.822;2022-12-24T19:22:16;313.92;;;98.68;;
52776;SDS011;38656;54.260;20.822;2022-12-24T19:24:42;150.35;;;51.50;;
52776;SDS011;38656;54.260;20.822;2022-12-24T19:27:08;231.32;;;77.43;;
52776;SDS011;38656;54.260;20.822;2022-12-24T19:29:34;201.77;;;76.45;;
52776;SDS011;38656;54.260;20.822;2022-12-24T19:32:00;170.32;;;65.97;;
52776;SDS011;38656;54.260;20.822;2022-12-24T19:34:26;52.65;;;36.92;;
52776;SDS011;38656;54.260;20.822;2022-12-24T19:36:52;51.95;;;35.78;;
52776;SDS011;38656;54.260;20.822;2022-12-24T19:39:19;30.23;;;25.13;;
52776;SDS011;38656;54.260;20.822;2022-12-24T19:41:45;24.42;;;21.60;;